createdAt,value
2022-08-20T00:00:50.261Z,97727.85
2022-08-20T00:02:06.876Z,97733.19
2022-08-20T00:03:20.681Z,97733.96
2022-08-20T00:04:32.180Z,97729.50
2022-08-20T00:05:43.581Z,97731.02
2022-08-20T00:06:53.440Z,97729.98
2022-08-20T00:08:05.269Z,97732.13
2022-08-20T00:09:12.493Z,97732.30
2022-08-20T00:10:20.334Z,97733.41
2022-08-20T00:11:29.184Z,97725.59
2022-08-20T00:12:40.629Z,97734.38
2022-08-20T00:13:53.978Z,97731.34
2022-08-20T00:15:05.584Z,97736.70
2022-08-20T00:16:15.513Z,97735.73
2022-08-20T00:17:25.791Z,97734.23
2022-08-20T00:18:38.424Z,97737.31
2022-08-20T00:19:49.242Z,97742.13
2022-08-20T00:20:59.714Z,97739.84
2022-08-20T00:22:07.948Z,97741.11
2022-08-20T00:23:16.999Z,97743.54
2022-08-20T00:24:25.155Z,97740.32
2022-08-20T00:25:33.644Z,97733.21
2022-08-20T00:26:51.904Z,97738.04
2022-08-20T00:28:05.966Z,97738.36
2022-08-20T00:29:13.289Z,97738.95
2022-08-20T00:30:26.280Z,97739.48
2022-08-20T00:31:34.147Z,97741.27
2022-08-20T00:32:59.632Z,97740.77
2022-08-20T00:34:08.265Z,97742.81
2022-08-20T00:35:17.851Z,97745.52
2022-08-20T00:36:32.244Z,97749.81
2022-08-20T00:37:42.927Z,97748.27
2022-08-20T00:38:52.645Z,97748.25
2022-08-20T00:40:02.709Z,97748.06
2022-08-20T00:41:18.712Z,97750.38
2022-08-20T00:42:27.631Z,97753.64
2022-08-20T00:44:06.288Z,97757.55
2022-08-20T00:45:13.841Z,97753.52
2022-08-20T00:46:27.937Z,97751.14
2022-08-20T00:47:51.174Z,97753.89
2022-08-20T00:49:01.805Z,97755.73
2022-08-20T00:50:14.135Z,97759.81
2022-08-20T00:51:43.952Z,97758.11
2022-08-20T00:52:54.157Z,97758.59
2022-08-20T00:54:18.261Z,97756.10
2022-08-20T00:55:29.728Z,97757.65
2022-08-20T00:56:40.145Z,97758.86
2022-08-20T00:58:00.692Z,97757.16
2022-08-20T00:59:13.723Z,97756.27
2022-08-20T01:00:26.815Z,97754.30
2022-08-20T01:01:55.915Z,97754.82
2022-08-20T01:03:10.969Z,97758.46
2022-08-20T01:04:19.823Z,97757.77
2022-08-20T01:05:30.352Z,97761.57
2022-08-20T01:06:42.206Z,97763.09
2022-08-20T01:07:56.069Z,97769.07
2022-08-20T01:09:06.585Z,97769.73
2022-08-20T01:10:14.982Z,97775.00
2022-08-20T01:11:36.917Z,97770.21
2022-08-20T01:12:58.947Z,97769.91
2022-08-20T01:14:35.642Z,97770.98
2022-08-20T01:15:46.220Z,97769.10
2022-08-20T01:17:00.935Z,97769.80
2022-08-20T01:18:08.633Z,97771.10
2022-08-20T01:19:29.802Z,97772.83
2022-08-20T01:20:43.663Z,97776.60
2022-08-20T01:21:53.579Z,97778.77
2022-08-20T01:23:29.928Z,97777.80
2022-08-20T01:24:41.519Z,97781.66
2022-08-20T01:25:55.132Z,97783.77
2022-08-20T01:27:09.086Z,97784.44
2022-08-20T01:28:18.507Z,97785.01
2022-08-20T01:29:28.941Z,97784.17
2022-08-20T01:30:39.786Z,97783.80
2022-08-20T01:31:47.707Z,97787.45
2022-08-20T01:32:56.443Z,97790.55
2022-08-20T01:34:06.523Z,97786.85
2022-08-20T01:35:14.012Z,97789.68
2022-08-20T01:36:26.111Z,97791.55
2022-08-20T01:37:35.992Z,97793.23
2022-08-20T01:38:53.193Z,97794.70
2022-08-20T01:40:09.199Z,97794.83
2022-08-20T01:41:31.945Z,97795.52
2022-08-20T01:42:53.995Z,97795.08
2022-08-20T01:44:13.863Z,97795.86
2022-08-20T01:45:31.478Z,97795.89
2022-08-20T01:46:43.629Z,97797.05
2022-08-20T01:47:53.686Z,97798.89
2022-08-20T01:49:21.059Z,97799.68
2022-08-20T01:50:36.300Z,97796.41
2022-08-20T01:51:45.972Z,97796.98
2022-08-20T01:53:06.436Z,97798.14
2022-08-20T01:54:15.467Z,97796.95
2022-08-20T01:57:22.043Z,97798.90
2022-08-20T01:58:31.287Z,97798.89
2022-08-20T01:59:41.205Z,97800.52
2022-08-20T02:00:51.103Z,97804.86
2022-08-20T02:02:04.709Z,97805.23
2022-08-20T02:04:50.548Z,97812.11
2022-08-20T02:06:03.651Z,97816.41
2022-08-20T02:07:17.129Z,97817.85
2022-08-20T02:08:29.679Z,97818.23
2022-08-20T02:09:41.621Z,97818.54
2022-08-20T02:10:50.384Z,97819.07
2022-08-20T02:12:00.786Z,97819.60
2022-08-20T02:13:11.778Z,97824.38
2022-08-20T02:14:22.803Z,97826.47
2022-08-20T02:15:37.091Z,97828.63
2022-08-20T02:16:54.698Z,97833.36
2022-08-20T02:18:11.944Z,97835.14
2022-08-20T02:21:06.488Z,97838.46
2022-08-20T02:22:20.515Z,97835.65
2022-08-20T02:23:29.466Z,97841.65
2022-08-20T02:24:37.605Z,97841.75
2022-08-20T02:25:48.634Z,97844.60
2022-08-20T02:26:57.590Z,97848.30
2022-08-20T02:28:10.826Z,97852.42
2022-08-20T02:29:18.784Z,97852.49
2022-08-20T02:30:36.534Z,97858.98
2022-08-20T02:32:24.375Z,97858.06
2022-08-20T02:33:19.399Z,97858.21
2022-08-20T02:34:27.451Z,97857.81
2022-08-20T02:35:37.253Z,97856.52
2022-08-20T02:36:47.773Z,97860.13
2022-08-20T02:37:56.270Z,97861.02
2022-08-20T02:39:08.166Z,97867.23
2022-08-20T02:40:18.973Z,97866.17
2022-08-20T02:41:42.751Z,97872.51
2022-08-20T02:42:51.706Z,97870.76
2022-08-20T02:44:01.115Z,97876.83
2022-08-20T02:45:09.778Z,97877.67
2022-08-20T02:46:25.055Z,97879.48
2022-08-20T02:47:36.846Z,97880.13
2022-08-20T02:48:46.281Z,97882.60
2022-08-20T02:49:56.360Z,97884.71
2022-08-20T02:51:07.092Z,97887.05
2022-08-20T02:52:14.879Z,97888.05
2022-08-20T02:53:42.333Z,97890.49
2022-08-20T02:54:59.398Z,97896.23
2022-08-20T02:56:12.943Z,97900.32
2022-08-20T02:57:32.040Z,97899.34
2022-08-20T02:58:58.354Z,97903.10
2022-08-20T03:00:22.047Z,97902.66
2022-08-20T03:01:33.486Z,97905.61
2022-08-20T03:02:43.014Z,97906.77
2022-08-20T03:03:52.454Z,97902.89
2022-08-20T03:05:03.993Z,97903.24
2022-08-20T03:06:13.053Z,97903.97
2022-08-20T03:07:21.538Z,97902.04
2022-08-20T03:08:30.892Z,97904.74
2022-08-20T03:09:39.721Z,97903.29
2022-08-20T03:10:49.479Z,97906.58
2022-08-20T03:11:59.254Z,97908.84
2022-08-20T03:13:12.589Z,97907.93
2022-08-20T03:14:19.710Z,97909.77
2022-08-20T03:15:28.557Z,97912.52
2022-08-20T03:16:38.605Z,97915.27
2022-08-20T03:17:48.833Z,97916.27
2022-08-20T03:18:59.726Z,97919.33
2022-08-20T03:20:09.851Z,97923.30
2022-08-20T03:21:20.546Z,97924.88
2022-08-20T03:22:28.766Z,97928.84
2022-08-20T03:23:40.346Z,97928.83
2022-08-20T03:24:54.017Z,97932.20
2022-08-20T03:26:13.941Z,97928.43
2022-08-20T03:27:35.506Z,97927.98
2022-08-20T03:28:46.267Z,97930.19
2022-08-20T03:30:02.944Z,97928.48
2022-08-20T03:31:17.049Z,97932.84
2022-08-20T03:32:25.905Z,97934.20
2022-08-20T03:33:35.121Z,97934.17
2022-08-20T03:34:42.400Z,97937.56
2022-08-20T03:35:51.325Z,97942.69
2022-08-20T03:37:02.202Z,97944.11
2022-08-20T03:38:13.269Z,97948.77
2022-08-20T03:39:21.529Z,97954.73
2022-08-20T03:40:38.508Z,97956.05
2022-08-20T03:41:50.528Z,97960.42
2022-08-20T03:43:02.388Z,97964.17
2022-08-20T03:44:11.503Z,97965.88
2022-08-20T03:45:21.545Z,97964.00
2022-08-20T03:46:29.906Z,97960.58
2022-08-20T03:47:39.598Z,97965.55
2022-08-20T03:48:48.715Z,97966.76
2022-08-20T03:50:06.742Z,97967.36
2022-08-20T03:51:18.927Z,97969.43
2022-08-20T03:52:28.072Z,97973.82
2022-08-20T03:53:37.695Z,97974.16
2022-08-20T03:54:48.027Z,97977.39
2022-08-20T03:56:01.758Z,97978.04
2022-08-20T03:57:17.660Z,97981.31
2022-08-20T03:58:34.921Z,97981.85
2022-08-20T03:59:46.345Z,97984.82
2022-08-20T04:00:59.334Z,97979.30
2022-08-20T04:02:10.781Z,97978.25
2022-08-20T04:03:18.684Z,97977.16
2022-08-20T04:04:27.243Z,97976.94
2022-08-20T04:05:38.622Z,97979.27
2022-08-20T04:06:48.996Z,97982.52
2022-08-20T04:08:02.954Z,97980.95
2022-08-20T04:09:12.730Z,97984.85
2022-08-20T04:10:19.747Z,97987.02
2022-08-20T04:11:27.692Z,97990.45
2022-08-20T04:12:36.279Z,97994.30
2022-08-20T04:13:50.164Z,97993.73
2022-08-20T04:15:02.845Z,97996.14
2022-08-20T04:16:14.785Z,98000.57
2022-08-20T04:17:25.860Z,98002.39
2022-08-20T04:18:33.496Z,98005.29
2022-08-20T04:19:46.198Z,98006.73
2022-08-20T04:20:55.629Z,98010.69
2022-08-20T04:22:04.561Z,98012.70
2022-08-20T04:23:23.622Z,98011.85
2022-08-20T04:25:08.939Z,98014.42
2022-08-20T04:26:47.218Z,98018.11
2022-08-20T04:27:57.721Z,98019.38
2022-08-20T04:29:07.411Z,98020.45
2022-08-20T04:30:51.727Z,98020.56
2022-08-20T04:32:05.609Z,98020.21
2022-08-20T04:33:19.238Z,98017.55
2022-08-20T04:34:43.285Z,98015.91
2022-08-20T04:36:04.910Z,98017.68
2022-08-20T04:37:16.979Z,98017.55
2022-08-20T04:40:51.771Z,98020.74
2022-08-20T04:42:05.818Z,98021.69
2022-08-20T04:43:16.388Z,98025.30
2022-08-20T04:44:24.568Z,98024.95
2022-08-20T04:45:35.347Z,98026.54
2022-08-20T04:46:50.874Z,98028.23
2022-08-20T04:48:11.726Z,98027.67
2022-08-20T04:49:28.957Z,98028.90
2022-08-20T04:50:48.954Z,98034.39
2022-08-20T04:52:02.895Z,98041.21
2022-08-20T04:53:25.765Z,98047.09
2022-08-20T04:54:36.189Z,98048.09
2022-08-20T04:55:49.048Z,98047.45
2022-08-20T04:56:58.920Z,98048.77
2022-08-20T04:58:14.959Z,98050.27
2022-08-20T04:59:24.356Z,98051.44
2022-08-20T05:00:33.427Z,98050.14
2022-08-20T05:01:51.218Z,98050.09
2022-08-20T05:03:00.806Z,98052.27
2022-08-20T05:04:12.604Z,98056.34
2022-08-20T05:07:32.484Z,98055.27
2022-08-20T05:08:47.489Z,98056.16
2022-08-20T05:10:00.436Z,98056.92
2022-08-20T05:11:34.410Z,98057.98
2022-08-20T05:12:56.857Z,98054.30
2022-08-20T05:14:08.313Z,98056.19
2022-08-20T05:15:19.836Z,98055.85
2022-08-20T05:16:29.901Z,98060.16
2022-08-20T05:17:41.919Z,98060.22
2022-08-20T05:18:52.474Z,98063.45
2022-08-20T05:20:06.231Z,98064.38
2022-08-20T05:21:20.054Z,98062.38
2022-08-20T05:22:31.100Z,98063.30
2022-08-20T05:23:44.504Z,98064.08
2022-08-20T05:24:53.689Z,98062.69
2022-08-20T05:26:05.062Z,98062.56
2022-08-20T05:27:24.643Z,98060.34
2022-08-20T05:28:49.972Z,98062.57
2022-08-20T05:30:13.472Z,98066.49
2022-08-20T05:31:35.063Z,98065.52
2022-08-20T05:32:44.860Z,98065.61
2022-08-20T05:33:53.219Z,98066.36
2022-08-20T05:35:02.892Z,98068.36
2022-08-20T05:36:12.861Z,98067.10
2022-08-20T05:37:24.217Z,98066.27
2022-08-20T05:38:38.323Z,98066.41
2022-08-20T05:39:50.251Z,98065.69
2022-08-20T05:41:04.354Z,98064.42
2022-08-20T05:42:16.156Z,98069.91
2022-08-20T05:43:25.963Z,98066.98
2022-08-20T05:44:34.208Z,98069.00
2022-08-20T05:45:47.857Z,98068.11
2022-08-20T05:46:58.299Z,98069.33
2022-08-20T05:48:19.881Z,98071.55
2022-08-20T05:49:29.667Z,98070.86
2022-08-20T05:50:40.770Z,98071.58
2022-08-20T05:51:52.560Z,98073.58
2022-08-20T05:53:03.236Z,98073.98
2022-08-20T05:54:11.242Z,98070.26
2022-08-20T05:55:18.541Z,98069.91
2022-08-20T05:56:26.840Z,98068.98
2022-08-20T05:57:34.501Z,98068.78
2022-08-20T05:58:43.423Z,98070.29
2022-08-20T05:59:50.592Z,98070.06
2022-08-20T06:01:00.087Z,98072.39
2022-08-20T06:02:29.785Z,98070.50
2022-08-20T06:04:00.122Z,98071.09
2022-08-20T06:05:09.601Z,98075.58
2022-08-20T06:06:39.010Z,98075.11
2022-08-20T06:07:48.289Z,98078.65
2022-08-20T06:08:58.739Z,98076.94
2022-08-20T06:10:12.071Z,98079.70
2022-08-20T06:11:20.350Z,98081.51
2022-08-20T06:12:28.226Z,98083.03
2022-08-20T06:13:36.693Z,98090.77
2022-08-20T06:14:46.677Z,98089.99
2022-08-20T06:15:54.397Z,98088.24
2022-08-20T06:17:13.457Z,98089.45
2022-08-20T06:18:27.753Z,98090.85
2022-08-20T06:19:38.403Z,98087.34
2022-08-20T06:20:48.181Z,98087.96
2022-08-20T06:21:58.376Z,98088.17
2022-08-20T06:23:07.998Z,98088.66
2022-08-20T06:24:16.285Z,98087.95
2022-08-20T06:25:25.975Z,98088.98
2022-08-20T06:26:36.629Z,98088.98
2022-08-20T06:27:46.210Z,98093.98
2022-08-20T06:28:56.414Z,98093.42
2022-08-20T06:30:06.405Z,98093.20
2022-08-20T06:31:17.471Z,98093.55
2022-08-20T06:32:32.070Z,98089.33
2022-08-20T06:33:42.023Z,98088.36
2022-08-20T06:34:53.354Z,98088.23
2022-08-20T06:36:02.770Z,98085.81
2022-08-20T06:37:17.707Z,98087.41
2022-08-20T06:38:26.891Z,98087.31
2022-08-20T06:39:36.406Z,98087.90
2022-08-20T06:40:45.611Z,98087.22
2022-08-20T06:41:55.140Z,98087.55
2022-08-20T06:43:05.537Z,98088.50
2022-08-20T06:44:15.499Z,98091.49
2022-08-20T06:45:26.708Z,98089.60
2022-08-20T06:46:40.463Z,98094.77
2022-08-20T06:47:51.478Z,98094.36
2022-08-20T06:49:02.548Z,98096.74
2022-08-20T06:50:14.374Z,98095.81
2022-08-20T06:51:23.491Z,98097.27
2022-08-20T06:52:51.679Z,98095.41
2022-08-20T06:54:03.463Z,98092.95
2022-08-20T06:55:14.518Z,98094.63
2022-08-20T06:56:22.129Z,98099.91
2022-08-20T06:57:29.875Z,98097.80
2022-08-20T06:58:39.205Z,98096.45
2022-08-20T06:59:54.408Z,98091.48
2022-08-20T07:01:10.383Z,98087.97
2022-08-20T07:02:19.049Z,98092.48
2022-08-20T07:03:27.974Z,98092.91
2022-08-20T07:04:38.791Z,98094.27
2022-08-20T07:05:47.661Z,98096.12
2022-08-20T07:06:55.466Z,98097.12
2022-08-20T07:08:02.387Z,98095.52
2022-08-20T07:09:10.807Z,98098.77
2022-08-20T07:10:18.317Z,98096.45
2022-08-20T07:11:28.897Z,98093.20
2022-08-20T07:12:37.800Z,98091.63
2022-08-20T07:13:46.699Z,98090.23
2022-08-20T07:14:54.041Z,98090.40
2022-08-20T07:16:02.859Z,98088.16
2022-08-20T07:17:12.224Z,98090.02
2022-08-20T07:18:28.874Z,98090.85
2022-08-20T07:19:37.743Z,98095.38
2022-08-20T07:20:46.047Z,98093.16
2022-08-20T07:21:53.149Z,98091.95
2022-08-20T07:23:00.828Z,98090.11
2022-08-20T07:24:09.188Z,98087.36
2022-08-20T07:25:18.428Z,98088.27
2022-08-20T07:26:26.001Z,98087.95
2022-08-20T07:27:33.404Z,98086.30
2022-08-20T07:28:41.971Z,98085.91
2022-08-20T07:30:12.530Z,98084.23
2022-08-20T07:31:38.286Z,98082.13
2022-08-20T07:32:50.147Z,98080.42
2022-08-20T07:33:57.485Z,98076.48
2022-08-20T07:35:09.686Z,98077.43
2022-08-20T07:36:16.642Z,98073.46
2022-08-20T07:37:25.041Z,98076.30
2022-08-20T07:38:32.263Z,98078.58
2022-08-20T07:39:42.459Z,98079.61
2022-08-20T07:40:50.106Z,98080.61
2022-08-20T07:42:04.429Z,98082.07
2022-08-20T07:43:12.105Z,98083.98
2022-08-20T07:44:22.760Z,98085.61
2022-08-20T07:45:40.264Z,98086.41
2022-08-20T07:46:56.646Z,98089.84
2022-08-20T07:48:11.046Z,98088.72
2022-08-20T07:49:19.497Z,98088.55
2022-08-20T07:50:29.432Z,98088.08
2022-08-20T07:51:38.064Z,98089.61
2022-08-20T07:52:46.973Z,98088.45
2022-08-20T07:53:59.399Z,98087.36
2022-08-20T07:55:08.053Z,98088.42
2022-08-20T07:56:18.074Z,98087.51
2022-08-20T07:57:25.397Z,98090.02
2022-08-20T07:58:33.499Z,98090.41
2022-08-20T07:59:42.463Z,98091.78
2022-08-20T08:00:51.156Z,98090.00
2022-08-20T08:02:00.513Z,98089.48
2022-08-20T08:03:11.828Z,98087.73
2022-08-20T08:04:19.217Z,98085.58
2022-08-20T08:05:27.628Z,98086.20
2022-08-20T08:06:37.832Z,98087.60
2022-08-20T08:07:44.968Z,98087.14
2022-08-20T08:08:52.621Z,98087.88
2022-08-20T08:10:00.192Z,98085.94
2022-08-20T08:11:09.945Z,98084.30
2022-08-20T08:12:19.103Z,98084.92
2022-08-20T08:13:28.728Z,98084.33
2022-08-20T08:14:36.287Z,98083.52
2022-08-20T08:15:46.179Z,98084.02
2022-08-20T08:16:54.672Z,98082.52
2022-08-20T08:18:09.132Z,98080.19
2022-08-20T08:19:16.676Z,98080.15
2022-08-20T08:20:24.768Z,98078.42
2022-08-20T08:21:34.183Z,98076.95
2022-08-20T08:22:44.116Z,98074.29
2022-08-20T08:23:54.857Z,98071.64
2022-08-20T08:25:05.872Z,98070.83
2022-08-20T08:26:16.187Z,98070.31
2022-08-20T08:27:29.027Z,98068.86
2022-08-20T08:28:38.262Z,98067.57
2022-08-20T08:29:45.597Z,98069.36
2022-08-20T08:30:53.133Z,98067.21
2022-08-20T08:32:04.000Z,98067.55
2022-08-20T08:33:32.515Z,98070.16
2022-08-20T08:34:40.514Z,98072.11
2022-08-20T08:35:48.110Z,98069.73
2022-08-20T08:36:57.102Z,98072.85
2022-08-20T08:38:04.578Z,98076.49
2022-08-20T08:39:14.820Z,98076.11
2022-08-20T08:40:24.901Z,98075.88
2022-08-20T08:41:37.459Z,98075.27
2022-08-20T08:42:59.613Z,98075.03
2022-08-20T08:44:27.017Z,98080.35
2022-08-20T08:45:40.590Z,98079.36
2022-08-20T08:46:51.860Z,98082.34
2022-08-20T08:48:01.294Z,98084.80
2022-08-20T08:49:14.705Z,98084.35
2022-08-20T08:50:50.197Z,98087.38
2022-08-20T08:52:06.750Z,98088.54
2022-08-20T08:53:28.779Z,98085.56
2022-08-20T08:54:37.756Z,98086.50
2022-08-20T08:55:47.292Z,98086.61
2022-08-20T08:56:56.931Z,98086.14
2022-08-20T08:58:16.475Z,98086.93
2022-08-20T08:59:48.501Z,98089.12
2022-08-20T09:01:02.085Z,98087.23
2022-08-20T09:02:20.310Z,98085.60
2022-08-20T09:03:30.534Z,98083.50
2022-08-20T09:04:40.334Z,98082.63
2022-08-20T09:06:01.365Z,98082.66
2022-08-20T09:07:13.319Z,98083.84
2022-08-20T09:08:25.617Z,98078.90
2022-08-20T09:09:38.498Z,98078.92
2022-08-20T09:10:47.309Z,98078.38
2022-08-20T09:11:57.195Z,98076.63
2022-08-20T09:13:05.561Z,98078.13
2022-08-20T09:14:13.123Z,98082.72
2022-08-20T09:15:20.892Z,98081.91
2022-08-20T09:16:28.884Z,98083.57
2022-08-20T09:17:54.555Z,98088.56
2022-08-20T09:19:06.115Z,98086.77
2022-08-20T09:20:13.700Z,98086.66
2022-08-20T09:21:20.855Z,98086.09
2022-08-20T09:22:28.281Z,98087.78
2022-08-20T09:23:38.875Z,98087.21
2022-08-20T09:24:46.062Z,98086.85
2022-08-20T09:25:53.192Z,98089.43
2022-08-20T09:27:00.829Z,98091.30
2022-08-20T09:28:10.886Z,98092.45
2022-08-20T09:29:21.162Z,98091.11
2022-08-20T09:30:31.408Z,98089.81
2022-08-20T09:31:40.957Z,98092.11
2022-08-20T09:32:48.316Z,98090.88
2022-08-20T09:33:59.312Z,98089.63
2022-08-20T09:35:09.538Z,98088.60
2022-08-20T09:36:25.613Z,98090.28
2022-08-20T09:37:42.658Z,98093.48
2022-08-20T09:38:53.228Z,98092.59
2022-08-20T09:40:02.868Z,98091.36
2022-08-20T09:41:12.093Z,98092.83
2022-08-20T09:42:24.925Z,98093.60
2022-08-20T09:43:35.069Z,98095.54
2022-08-20T09:44:42.863Z,98096.70
2022-08-20T09:45:49.948Z,98097.67
2022-08-20T09:47:00.507Z,98095.77
2022-08-20T09:48:10.486Z,98098.50
2022-08-20T09:49:21.150Z,98095.23
2022-08-20T09:50:32.422Z,98094.91
2022-08-20T09:51:40.011Z,98098.09
2022-08-20T09:52:50.605Z,98098.14
2022-08-20T09:54:00.219Z,98098.58
2022-08-20T09:55:16.078Z,98100.77
2022-08-20T09:56:23.357Z,98100.23
2022-08-20T09:57:30.636Z,98103.40
2022-08-20T09:58:52.327Z,98103.20
2022-08-20T10:00:03.159Z,98102.96
2022-08-20T10:01:22.670Z,98104.82
2022-08-20T10:02:29.946Z,98106.28
2022-08-20T10:03:39.740Z,98107.25
2022-08-20T10:04:53.629Z,98109.71
2022-08-20T10:06:04.005Z,98113.24
2022-08-20T10:07:13.686Z,98115.27
2022-08-20T10:08:23.555Z,98117.62
2022-08-20T10:09:32.404Z,98118.23
2022-08-20T10:10:41.239Z,98118.34
2022-08-20T10:11:48.778Z,98118.39
2022-08-20T10:12:56.598Z,98121.09
2022-08-20T10:14:06.682Z,98121.98
2022-08-20T10:15:14.252Z,98122.42
2022-08-20T10:16:21.529Z,98120.30
2022-08-20T10:17:30.389Z,98119.65
2022-08-20T10:18:37.971Z,98118.45
2022-08-20T10:19:46.203Z,98114.66
2022-08-20T10:20:53.715Z,98113.29
2022-08-20T10:22:01.512Z,98110.43
2022-08-20T10:23:12.103Z,98106.48
2022-08-20T10:24:19.649Z,98108.66
2022-08-20T10:25:30.350Z,98106.66
2022-08-20T10:26:40.405Z,98101.90
2022-08-20T10:27:47.722Z,98100.92
2022-08-20T10:28:55.027Z,98103.77
2022-08-20T10:30:02.449Z,98101.53
2022-08-20T10:31:13.048Z,98099.33
2022-08-20T10:32:20.430Z,98097.28
2022-08-20T10:33:28.512Z,98096.52
2022-08-20T10:34:36.925Z,98099.27
2022-08-20T10:35:45.438Z,98100.81
2022-08-20T10:36:54.407Z,98107.73
2022-08-20T10:38:03.316Z,98113.69
2022-08-20T10:39:12.504Z,98116.33
2022-08-20T10:40:23.204Z,98117.45
2022-08-20T10:41:36.147Z,98117.55
2022-08-20T10:42:48.790Z,98119.05
2022-08-20T10:43:59.244Z,98123.70
2022-08-20T10:45:06.689Z,98120.59
2022-08-20T10:46:16.863Z,98119.30
2022-08-20T10:47:27.982Z,98120.67
2022-08-20T10:48:35.196Z,98118.63
2022-08-20T10:49:44.512Z,98120.91
2022-08-20T10:50:52.774Z,98121.32
2022-08-20T10:52:00.886Z,98123.35
2022-08-20T10:53:14.245Z,98129.98
2022-08-20T10:54:22.980Z,98134.14
2022-08-20T10:55:31.052Z,98134.41
2022-08-20T10:56:39.729Z,98132.02
2022-08-20T10:57:47.439Z,98132.73
2022-08-20T10:58:56.190Z,98135.08
2022-08-20T11:00:06.811Z,98139.14
2022-08-20T11:01:31.350Z,98141.57
2022-08-20T11:02:44.033Z,98139.64
2022-08-20T11:03:54.267Z,98139.56
2022-08-20T11:05:04.325Z,98136.93
2022-08-20T11:06:12.203Z,98131.84
2022-08-20T11:07:55.183Z,98132.50
2022-08-20T11:08:57.166Z,98128.59
2022-08-20T11:10:04.647Z,98131.25
2022-08-20T11:11:12.530Z,98132.60
2022-08-20T11:12:20.875Z,98130.80
2022-08-20T11:13:29.049Z,98122.73
2022-08-20T11:14:37.202Z,98120.86
2022-08-20T11:15:47.563Z,98118.28
2022-08-20T11:16:58.145Z,98118.46
2022-08-20T11:18:07.155Z,98116.92
2022-08-20T11:19:16.571Z,98114.06
2022-08-20T11:20:23.415Z,98112.38
2022-08-20T11:21:30.688Z,98114.15
2022-08-20T11:22:38.020Z,98116.90
2022-08-20T11:23:46.505Z,98115.70
2022-08-20T11:24:54.344Z,98115.05
2022-08-20T11:26:06.450Z,98118.14
2022-08-20T11:27:19.269Z,98117.52
2022-08-20T11:28:32.280Z,98113.96
2022-08-20T11:29:40.829Z,98112.44
2022-08-20T11:30:51.298Z,98110.67
2022-08-20T11:31:58.530Z,98116.00
2022-08-20T11:33:06.443Z,98113.13
2022-08-20T11:34:14.585Z,98115.06
2022-08-20T11:35:42.076Z,98113.33
2022-08-20T11:36:53.683Z,98113.65
2022-08-20T11:38:02.369Z,98112.64
2022-08-20T11:39:09.944Z,98112.95
2022-08-20T11:40:17.854Z,98108.61
2022-08-20T11:41:26.173Z,98107.63
2022-08-20T11:42:33.784Z,98109.41
2022-08-20T11:43:41.122Z,98110.16
2022-08-20T11:44:49.543Z,98113.35
2022-08-20T11:45:58.063Z,98114.40
2022-08-20T11:47:07.305Z,98115.30
2022-08-20T11:48:14.838Z,98114.80
2022-08-20T11:49:22.302Z,98118.31
2022-08-20T11:50:31.915Z,98117.65
2022-08-20T11:51:49.871Z,98118.98
2022-08-20T11:53:01.210Z,98121.55
2022-08-20T11:54:10.733Z,98122.48
2022-08-20T11:55:19.264Z,98123.13
2022-08-20T11:56:26.134Z,98125.08
2022-08-20T11:57:35.496Z,98128.30
2022-08-20T11:58:43.127Z,98129.17
2022-08-20T11:59:55.063Z,98129.85
2022-08-20T12:01:03.328Z,98131.34
2022-08-20T12:02:12.500Z,98133.33
2022-08-20T12:03:20.709Z,98134.25
2022-08-20T12:04:27.820Z,98135.64
2022-08-20T12:05:37.220Z,98139.14
2022-08-20T12:06:45.508Z,98139.52
2022-08-20T12:07:57.041Z,98135.27
2022-08-20T12:09:05.869Z,98138.52
2022-08-20T12:10:16.692Z,98139.38
2022-08-20T12:11:23.378Z,98143.83
2022-08-20T12:12:33.271Z,98147.27
2022-08-20T12:13:48.974Z,98149.23
2022-08-20T12:14:58.483Z,98149.77
2022-08-20T12:16:06.592Z,98150.41
2022-08-20T12:17:22.878Z,98148.55
2022-08-20T12:18:30.069Z,98150.38
2022-08-20T12:19:41.981Z,98152.75
2022-08-20T12:20:52.133Z,98152.87
2022-08-20T12:21:59.280Z,98151.94
2022-08-20T12:23:27.171Z,98149.44
2022-08-20T12:24:35.893Z,98153.91
2022-08-20T12:25:43.245Z,98152.10
2022-08-20T12:26:50.683Z,98151.34
2022-08-20T12:28:00.826Z,98155.09
2022-08-20T12:29:08.371Z,98152.52
2022-08-20T12:30:18.294Z,98153.40
2022-08-20T12:31:26.718Z,98153.17
2022-08-20T12:32:34.497Z,98153.98
2022-08-20T12:33:41.386Z,98157.05
2022-08-20T12:34:49.128Z,98158.23
2022-08-20T12:35:57.067Z,98160.23
2022-08-20T12:37:06.496Z,98159.60
2022-08-20T12:38:13.871Z,98158.11
2022-08-20T12:39:20.977Z,98161.42
2022-08-20T12:40:32.172Z,98163.88
2022-08-20T12:41:43.536Z,98164.73
2022-08-20T12:42:52.365Z,98166.39
2022-08-20T12:44:01.112Z,98163.61
2022-08-20T12:45:11.209Z,98162.23
2022-08-20T12:46:20.338Z,98159.98
2022-08-20T12:47:32.767Z,98161.97
2022-08-20T12:48:42.002Z,98164.21
2022-08-20T12:49:52.629Z,98164.00
2022-08-20T12:51:01.542Z,98169.61
2022-08-20T12:52:12.929Z,98165.98
2022-08-20T12:53:23.785Z,98172.20
2022-08-20T12:54:33.925Z,98174.95
2022-08-20T12:55:41.220Z,98177.66
2022-08-20T12:56:49.609Z,98177.83
2022-08-20T12:58:01.791Z,98180.66
2022-08-20T12:59:09.658Z,98184.77
2022-08-20T13:00:29.891Z,98191.51
2022-08-20T13:01:37.124Z,98192.73
2022-08-20T13:02:44.350Z,98193.57
2022-08-20T13:03:53.177Z,98195.46
2022-08-20T13:05:04.938Z,98195.48
2022-08-20T13:06:16.620Z,98200.55
2022-08-20T13:07:23.722Z,98200.30
2022-08-20T13:08:32.880Z,98199.60
2022-08-20T13:09:40.632Z,98195.04
2022-08-20T13:10:50.745Z,98196.66
2022-08-20T13:12:00.707Z,98194.20
2022-08-20T13:13:10.253Z,98198.67
2022-08-20T13:14:19.090Z,98202.44
2022-08-20T13:15:28.340Z,98202.69
2022-08-20T13:16:35.398Z,98209.02
2022-08-20T13:17:47.319Z,98212.66
2022-08-20T13:18:57.927Z,98214.28
2022-08-20T13:20:08.233Z,98216.61
2022-08-20T13:21:16.170Z,98217.10
2022-08-20T13:22:23.726Z,98218.66
2022-08-20T13:23:32.160Z,98219.83
2022-08-20T13:24:40.460Z,98224.31
2022-08-20T13:25:47.758Z,98223.95
2022-08-20T13:26:56.278Z,98225.25
2022-08-20T13:28:06.364Z,98225.51
2022-08-20T13:29:15.165Z,98228.24
2022-08-20T13:30:22.723Z,98230.06
2022-08-20T13:31:30.900Z,98229.28
2022-08-20T13:32:38.679Z,98233.84
2022-08-20T13:33:49.194Z,98235.80
2022-08-20T13:34:57.677Z,98238.33
2022-08-20T13:36:07.936Z,98236.71
2022-08-20T13:37:23.110Z,98241.80
2022-08-20T13:38:36.354Z,98237.30
2022-08-20T13:39:46.890Z,98234.98
2022-08-20T13:40:54.373Z,98235.90
2022-08-20T13:42:02.654Z,98235.64
2022-08-20T13:43:12.784Z,98237.69
2022-08-20T13:44:21.323Z,98241.29
2022-08-20T13:45:42.640Z,98245.38
2022-08-20T13:46:51.999Z,98247.06
2022-08-20T13:48:00.391Z,98250.09
2022-08-20T13:49:08.075Z,98250.16
2022-08-20T13:50:20.724Z,98252.98
2022-08-20T13:51:30.792Z,98255.31
2022-08-20T13:52:39.462Z,98258.30
2022-08-20T13:53:50.703Z,98259.10
2022-08-20T13:54:59.848Z,98259.64
2022-08-20T13:56:10.709Z,98258.79
2022-08-20T13:57:21.175Z,98259.44
2022-08-20T13:58:29.845Z,98261.70
2022-08-20T13:59:39.224Z,98259.56
2022-08-20T14:00:46.913Z,98257.69
2022-08-20T14:01:54.375Z,98257.88
2022-08-20T14:03:05.107Z,98265.45
2022-08-20T14:04:12.443Z,98265.10
2022-08-20T14:05:19.642Z,98266.55
2022-08-20T14:06:26.845Z,98269.17
2022-08-20T14:07:34.084Z,98267.75
2022-08-20T14:08:41.395Z,98268.70
2022-08-20T14:09:55.045Z,98273.38
2022-08-20T14:11:03.426Z,98275.10